createdAt,value
2022-07-29T00:02:26.553Z,2.00
2022-07-29T00:04:53.299Z,2.20
2022-07-29T00:07:19.946Z,1.77
2022-07-29T00:09:51.723Z,1.60
2022-07-29T00:12:25.532Z,2.08
2022-07-29T00:14:54.037Z,2.20
2022-07-29T00:17:22.428Z,1.73
2022-07-29T00:19:48.968Z,1.73
2022-07-29T00:22:15.556Z,1.73
2022-07-29T00:24:42.154Z,1.80
2022-07-29T00:27:08.739Z,2.10
2022-07-29T00:29:35.643Z,2.03
2022-07-29T00:32:02.506Z,2.08
2022-07-29T00:34:30.527Z,1.75
2022-07-29T00:36:57.716Z,1.60
2022-07-29T00:39:24.339Z,1.60
2022-07-29T00:41:51.342Z,1.97
2022-07-29T00:44:18.246Z,1.80
2022-07-29T00:46:45.118Z,1.95
2022-07-29T00:49:11.869Z,2.15
2022-07-29T00:51:40.128Z,2.05
2022-07-29T00:54:06.884Z,1.67
2022-07-29T00:56:34.066Z,2.00
2022-07-29T00:59:01.139Z,1.80
2022-07-29T01:01:28.149Z,1.90
2022-07-29T01:03:55.139Z,1.80
2022-07-29T01:06:21.868Z,1.85
2022-07-29T01:08:50.359Z,1.95
2022-07-29T01:11:17.900Z,1.88
2022-07-29T01:13:46.371Z,1.60
2022-07-29T01:16:19.085Z,2.33
2022-07-29T01:18:50.943Z,2.03
2022-07-29T01:21:50.330Z,1.70
2022-07-29T01:24:48.647Z,1.90
2022-07-29T01:27:34.130Z,2.15
2022-07-29T01:30:03.836Z,1.90
2022-07-29T01:32:36.302Z,1.90
2022-07-29T01:35:07.335Z,1.73
2022-07-29T01:37:43.927Z,1.85
2022-07-29T01:40:20.085Z,1.60
2022-07-29T01:42:52.396Z,1.97
2022-07-29T01:45:24.291Z,1.75
2022-07-29T01:47:59.463Z,1.63
2022-07-29T01:50:32.274Z,1.70
2022-07-29T01:53:01.048Z,1.80
2022-07-29T01:55:31.923Z,1.70
2022-07-29T01:58:00.794Z,1.67
2022-07-29T02:00:30.731Z,2.00
2022-07-29T02:02:59.657Z,1.60
2022-07-29T02:05:28.304Z,1.65
2022-07-29T02:07:56.567Z,1.50
2022-07-29T02:10:27.153Z,1.55
2022-07-29T02:12:56.627Z,1.58
2022-07-29T02:15:24.098Z,1.60
2022-07-29T02:17:57.291Z,1.80
2022-07-29T02:20:26.755Z,1.37
2022-07-29T02:22:55.519Z,1.95
2022-07-29T02:25:24.876Z,1.75
2022-07-29T02:27:52.325Z,1.83
2022-07-29T02:30:20.396Z,1.70
2022-07-29T02:32:47.657Z,1.70
2022-07-29T02:35:17.795Z,1.70
2022-07-29T02:37:46.412Z,1.70
2022-07-29T02:40:16.071Z,1.40
2022-07-29T02:42:44.771Z,1.50
2022-07-29T02:45:11.408Z,1.40
2022-07-29T02:47:42.573Z,1.67
2022-07-29T02:50:13.830Z,1.83
2022-07-29T02:52:45.045Z,1.70
2022-07-29T02:55:17.573Z,1.50
2022-07-29T02:57:54.077Z,1.60
2022-07-29T03:00:23.353Z,1.77
2022-07-29T03:02:53.243Z,1.50
2022-07-29T03:05:21.749Z,1.83
2022-07-29T03:07:53.836Z,1.60
2022-07-29T03:10:21.813Z,1.70
2022-07-29T03:12:49.298Z,1.67
2022-07-29T03:15:16.576Z,1.80
2022-07-29T03:17:44.104Z,1.70
2022-07-29T03:20:12.316Z,1.80
2022-07-29T03:22:40.926Z,1.83
2022-07-29T03:25:11.155Z,1.63
2022-07-29T03:27:38.022Z,2.05
2022-07-29T03:30:05.400Z,1.63
2022-07-29T03:32:35.602Z,1.83
2022-07-29T03:35:02.679Z,1.52
2022-07-29T03:37:29.269Z,1.85
2022-07-29T03:39:57.890Z,1.70
2022-07-29T03:42:33.875Z,1.50
2022-07-29T03:45:04.249Z,1.70
2022-07-29T03:47:38.587Z,1.70
2022-07-29T03:50:17.959Z,1.50
2022-07-29T03:52:45.253Z,2.10
2022-07-29T03:55:13.083Z,1.50
2022-07-29T03:57:41.759Z,1.60
2022-07-29T04:00:09.404Z,1.95
2022-07-29T04:02:37.580Z,1.50
2022-07-29T04:05:05.035Z,1.85
2022-07-29T04:07:31.583Z,1.77
2022-07-29T04:09:58.139Z,1.60
2022-07-29T04:12:25.791Z,1.77
2022-07-29T04:14:53.727Z,1.55
2022-07-29T04:17:20.279Z,1.80
2022-07-29T04:19:46.827Z,1.85
2022-07-29T04:22:13.420Z,1.88
2022-07-29T04:24:44.073Z,1.58
2022-07-29T04:27:10.945Z,1.80
2022-07-29T04:29:37.470Z,1.90
2022-07-29T04:32:25.532Z,1.70
2022-07-29T04:34:52.167Z,2.00
2022-07-29T04:37:18.721Z,1.60
2022-07-29T04:39:45.302Z,1.85
2022-07-29T04:42:11.851Z,1.80
2022-07-29T04:44:39.907Z,1.90
2022-07-29T04:47:09.827Z,1.50
2022-07-29T04:49:39.931Z,2.03
2022-07-29T04:52:06.664Z,1.83
2022-07-29T04:54:33.418Z,1.63
2022-07-29T04:56:59.949Z,1.60
2022-07-29T04:59:26.497Z,1.63
2022-07-29T05:01:53.178Z,1.73
2022-07-29T05:04:20.469Z,1.80
2022-07-29T05:06:48.797Z,1.80
2022-07-29T05:09:15.444Z,1.70
2022-07-29T05:11:42.023Z,1.70
2022-07-29T05:14:08.597Z,1.90
2022-07-29T05:16:35.197Z,1.43
2022-07-29T05:19:01.769Z,1.70
2022-07-29T05:21:28.315Z,1.52
2022-07-29T05:23:56.231Z,2.10
2022-07-29T05:26:22.810Z,1.60
2022-07-29T05:28:49.474Z,1.70
2022-07-29T05:31:16.465Z,1.73
2022-07-29T05:33:43.538Z,1.90
2022-07-29T05:36:10.098Z,1.47
2022-07-29T05:38:37.164Z,1.60
2022-07-29T05:41:05.295Z,1.48
2022-07-29T05:43:32.532Z,1.30
2022-07-29T05:45:59.484Z,1.60
2022-07-29T05:48:26.188Z,1.55
2022-07-29T05:50:52.739Z,1.50
2022-07-29T05:53:20.810Z,1.70
2022-07-29T05:55:47.787Z,1.50
2022-07-29T05:58:15.825Z,1.80
2022-07-29T06:00:42.398Z,2.00
2022-07-29T06:03:08.959Z,1.88
2022-07-29T06:05:35.635Z,1.70
2022-07-29T06:08:02.210Z,2.13
2022-07-29T06:10:28.769Z,1.70
2022-07-29T06:12:55.722Z,1.80
2022-07-29T06:15:23.587Z,2.10
2022-07-29T06:17:59.857Z,2.15
2022-07-29T06:20:27.739Z,2.05
2022-07-29T06:22:54.286Z,2.20
2022-07-29T06:25:21.188Z,2.30
2022-07-29T06:27:47.754Z,1.90
2022-07-29T06:30:14.488Z,2.00
2022-07-29T06:32:43.496Z,2.27
2022-07-29T06:35:37.847Z,1.98
2022-07-29T06:37:59.605Z,1.77
2022-07-29T06:40:26.646Z,1.70
2022-07-29T06:42:53.190Z,2.05
2022-07-29T06:45:19.799Z,2.28
2022-07-29T06:47:47.692Z,2.42
2022-07-29T06:50:14.243Z,2.40
2022-07-29T06:52:41.173Z,2.22
2022-07-29T06:55:09.035Z,2.10
2022-07-29T06:57:35.713Z,2.30
2022-07-29T07:00:02.494Z,2.30
2022-07-29T07:02:29.095Z,2.72
2022-07-29T07:04:57.045Z,2.70
2022-07-29T07:07:23.623Z,2.90
2022-07-29T07:09:50.211Z,3.08
2022-07-29T07:12:16.969Z,3.55
2022-07-29T07:14:43.588Z,2.72
2022-07-29T07:17:10.146Z,2.47
2022-07-29T07:19:36.693Z,2.65
2022-07-29T07:22:04.799Z,2.53
2022-07-29T07:24:31.444Z,2.17
2022-07-29T07:26:58.059Z,2.45
2022-07-29T07:29:24.615Z,3.35
2022-07-29T07:31:51.271Z,2.95
2022-07-29T07:34:18.330Z,2.40
2022-07-29T07:36:57.507Z,2.90
2022-07-29T07:39:25.539Z,3.37
2022-07-29T07:41:52.098Z,2.70
2022-07-29T07:44:18.999Z,3.00
2022-07-29T07:46:45.750Z,2.80
2022-07-29T07:49:12.622Z,3.00
2022-07-29T07:51:39.239Z,2.60
2022-07-29T07:54:05.940Z,2.60
2022-07-29T07:56:35.505Z,2.92
2022-07-29T07:59:02.122Z,2.70
2022-07-29T08:01:28.753Z,2.80
2022-07-29T08:03:55.379Z,2.58
2022-07-29T08:06:21.949Z,2.55
2022-07-29T08:08:48.467Z,2.67
2022-07-29T08:11:15.077Z,2.60
2022-07-29T08:13:43.027Z,3.10
2022-07-29T08:16:09.679Z,2.80
2022-07-29T08:18:36.282Z,2.80
2022-07-29T08:21:03.164Z,2.50
2022-07-29T08:23:46.533Z,2.63
2022-07-29T08:26:16.448Z,2.60
2022-07-29T08:28:46.235Z,2.30
2022-07-29T08:31:13.187Z,2.40
2022-07-29T08:33:39.874Z,2.20
2022-07-29T08:36:07.321Z,2.47
2022-07-29T08:38:33.996Z,2.30
2022-07-29T08:41:02.196Z,2.33
2022-07-29T08:43:29.521Z,2.45
2022-07-29T08:45:57.489Z,2.67
2022-07-29T08:48:25.165Z,2.42
2022-07-29T08:50:56.234Z,2.10
2022-07-29T08:53:26.429Z,2.53
2022-07-29T08:55:53.962Z,2.70
2022-07-29T08:58:23.052Z,2.35
2022-07-29T09:00:52.599Z,2.28
2022-07-29T09:03:23.325Z,2.50
2022-07-29T09:05:50.954Z,2.45
2022-07-29T09:08:18.380Z,2.03
2022-07-29T09:10:45.368Z,2.30
2022-07-29T09:13:11.950Z,2.60
2022-07-29T09:16:02.529Z,2.58
2022-07-29T09:18:37.089Z,2.42
2022-07-29T09:21:04.563Z,2.70
2022-07-29T09:23:31.088Z,2.50
2022-07-29T09:26:06.493Z,2.38
2022-07-29T09:28:33.067Z,2.50
2022-07-29T09:30:59.868Z,2.50
2022-07-29T09:33:33.942Z,2.28
2022-07-29T09:36:04.466Z,2.87
2022-07-29T09:38:32.878Z,2.60
2022-07-29T09:41:04.624Z,2.65
2022-07-29T09:43:32.854Z,2.67
2022-07-29T09:46:12.327Z,2.38
2022-07-29T09:48:39.069Z,2.97
2022-07-29T09:51:20.619Z,2.60
2022-07-29T09:53:49.035Z,2.57
2022-07-29T09:56:15.711Z,2.50
2022-07-29T09:58:42.317Z,2.70
2022-07-29T10:01:09.170Z,2.55
2022-07-29T10:03:51.737Z,2.65
2022-07-29T10:06:19.696Z,2.60
2022-07-29T10:08:47.403Z,2.35
2022-07-29T10:11:15.971Z,2.72
2022-07-29T10:13:44.899Z,2.80
2022-07-29T10:16:12.196Z,2.67
2022-07-29T10:18:42.039Z,2.40
2022-07-29T10:21:08.958Z,2.40
2022-07-29T10:23:46.990Z,2.90
2022-07-29T10:26:14.505Z,2.90
2022-07-29T10:28:41.072Z,3.03
2022-07-29T10:31:14.668Z,2.75
2022-07-29T10:33:52.728Z,2.90
2022-07-29T10:36:39.047Z,2.97
2022-07-29T10:39:22.420Z,2.90
2022-07-29T10:42:03.681Z,2.80
2022-07-29T10:44:31.394Z,2.60
2022-07-29T10:46:58.706Z,3.13
2022-07-29T10:49:27.452Z,3.00
2022-07-29T10:52:02.120Z,2.92
2022-07-29T10:54:51.848Z,2.70
2022-07-29T10:57:25.791Z,3.05
2022-07-29T11:00:31.710Z,2.80
2022-07-29T11:02:58.501Z,2.85
2022-07-29T11:05:25.156Z,2.50
2022-07-29T11:08:21.082Z,2.80
2022-07-29T11:11:29.898Z,2.90
2022-07-29T11:13:57.025Z,2.97
2022-07-29T11:16:25.172Z,2.90
2022-07-29T11:19:26.319Z,2.78
2022-07-29T11:24:50.304Z,3.10
2022-07-29T11:27:20.206Z,3.20
2022-07-29T11:29:52.466Z,3.45
2022-07-29T11:32:23.213Z,3.00
2022-07-29T11:35:17.354Z,3.40
2022-07-29T11:37:50.802Z,2.80
2022-07-29T11:40:22.042Z,3.10
2022-07-29T11:42:51.921Z,3.30
2022-07-29T11:45:43.861Z,3.47
2022-07-29T11:48:27.760Z,3.30
2022-07-29T11:50:58.360Z,3.25
2022-07-29T11:53:25.643Z,3.50
2022-07-29T11:55:58.170Z,3.22
2022-07-29T11:58:27.113Z,3.55
2022-07-29T12:00:55.360Z,3.13
2022-07-29T12:03:35.093Z,3.42
2022-07-29T12:06:03.998Z,3.43
2022-07-29T12:08:31.069Z,3.22
2022-07-29T12:10:57.665Z,3.38
2022-07-29T12:13:37.690Z,3.05
2022-07-29T12:16:06.302Z,3.75
2022-07-29T12:18:32.940Z,3.40
2022-07-29T12:21:03.092Z,3.58
2022-07-29T12:23:34.802Z,3.20
2022-07-29T12:26:05.063Z,3.50
2022-07-29T12:28:38.452Z,3.75
2022-07-29T12:31:06.533Z,3.30
2022-07-29T12:33:34.931Z,3.83
2022-07-29T12:36:07.007Z,3.75
2022-07-29T12:38:34.953Z,3.30
2022-07-29T12:41:01.790Z,3.38
2022-07-29T12:43:31.395Z,3.40
2022-07-29T12:45:58.486Z,3.22
2022-07-29T12:48:35.790Z,3.38
2022-07-29T12:51:04.745Z,3.30
2022-07-29T12:53:31.876Z,3.30
2022-07-29T12:55:59.397Z,3.37
2022-07-29T12:58:31.861Z,3.47
2022-07-29T13:01:04.311Z,3.45
2022-07-29T13:03:57.433Z,3.45
2022-07-29T13:06:35.647Z,3.50
2022-07-29T13:09:13.192Z,3.47
2022-07-29T13:11:45.265Z,3.78
2022-07-29T13:14:29.976Z,3.65
2022-07-29T13:17:05.371Z,3.50
2022-07-29T13:19:39.159Z,3.70
2022-07-29T13:22:05.832Z,3.70
2022-07-29T13:24:32.364Z,4.05
2022-07-29T13:26:58.939Z,4.00
2022-07-29T13:29:28.596Z,3.45
2022-07-29T13:31:58.108Z,3.78
2022-07-29T13:34:24.808Z,3.63
2022-07-29T13:36:52.725Z,4.15
2022-07-29T13:39:19.284Z,3.40
2022-07-29T13:41:45.876Z,3.88
2022-07-29T13:44:12.417Z,3.72
2022-07-29T13:46:39.492Z,3.63
2022-07-29T13:49:06.854Z,3.88
2022-07-29T13:51:33.459Z,3.50
2022-07-29T13:54:01.339Z,3.80
2022-07-29T13:56:29.195Z,4.05
2022-07-29T13:58:55.976Z,3.73
2022-07-29T14:01:22.654Z,3.78
2022-07-29T14:03:49.260Z,3.80
2022-07-29T14:06:15.873Z,4.10
2022-07-29T14:08:44.781Z,3.75
2022-07-29T14:11:12.729Z,4.30
2022-07-29T14:13:39.272Z,3.88
2022-07-29T14:16:06.630Z,3.70
2022-07-29T14:18:33.265Z,3.78
2022-07-29T14:20:59.902Z,4.00
2022-07-29T14:23:26.469Z,3.80
2022-07-29T14:25:53.262Z,4.00
2022-07-29T14:28:21.465Z,4.07
2022-07-29T14:30:48.017Z,4.20
2022-07-29T14:33:14.602Z,4.00
2022-07-29T14:35:41.257Z,4.37
2022-07-29T14:38:07.807Z,4.10
2022-07-29T14:40:34.417Z,3.83
2022-07-29T14:43:00.965Z,3.60
2022-07-29T14:45:29.125Z,3.55
2022-07-29T14:47:57.502Z,4.00
2022-07-29T14:50:31.891Z,3.80
2022-07-29T14:52:58.943Z,4.13
2022-07-29T14:55:25.642Z,4.07
2022-07-29T14:57:55.433Z,3.70
2022-07-29T15:00:26.087Z,4.13
2022-07-29T15:03:02.554Z,4.28
2022-07-29T15:05:29.829Z,3.92
2022-07-29T15:07:58.579Z,4.00
2022-07-29T15:10:25.436Z,3.70
2022-07-29T15:12:53.643Z,3.70
2022-07-29T15:15:20.407Z,4.15
2022-07-29T15:17:47.827Z,3.85
2022-07-29T15:20:15.730Z,4.25
2022-07-29T15:22:42.289Z,3.70
2022-07-29T15:25:10.719Z,4.23
2022-07-29T15:27:37.267Z,3.75
2022-07-29T15:30:04.490Z,4.00
2022-07-29T15:32:31.033Z,3.90
2022-07-29T15:34:57.622Z,4.10
2022-07-29T15:37:25.550Z,3.63
2022-07-29T15:39:52.087Z,4.13
2022-07-29T15:42:18.647Z,4.00
2022-07-29T15:44:45.187Z,4.43
2022-07-29T15:47:11.748Z,3.88
2022-07-29T15:49:47.721Z,3.80
2022-07-29T15:52:17.383Z,3.97
2022-07-29T15:54:45.302Z,4.15
2022-07-29T15:57:12.284Z,4.53
2022-07-29T15:59:38.916Z,4.50
2022-07-29T16:02:05.807Z,4.03
2022-07-29T16:04:32.519Z,3.92
2022-07-29T16:06:59.431Z,3.72
2022-07-29T16:09:26.680Z,3.85
2022-07-29T16:11:54.744Z,3.88
2022-07-29T16:14:21.437Z,4.13
2022-07-29T16:16:48.438Z,3.70
2022-07-29T16:19:15.197Z,4.10
2022-07-29T16:21:41.806Z,4.07
2022-07-29T16:24:08.864Z,3.55
2022-07-29T16:26:35.445Z,3.60
2022-07-29T16:29:03.710Z,3.80
2022-07-29T16:31:30.522Z,3.92
2022-07-29T16:33:57.128Z,3.83
2022-07-29T16:36:23.675Z,4.22
2022-07-29T16:38:59.888Z,3.87
2022-07-29T16:41:26.515Z,4.07
2022-07-29T16:43:53.034Z,4.00
2022-07-29T16:46:21.054Z,3.70
2022-07-29T16:48:47.869Z,3.58
2022-07-29T16:51:15.328Z,3.60
2022-07-29T16:53:41.965Z,3.75
2022-07-29T16:56:12.794Z,3.83
2022-07-29T16:58:43.595Z,4.40
2022-07-29T17:01:10.592Z,3.90
2022-07-29T17:03:38.614Z,3.87
2022-07-29T17:06:05.242Z,3.65
2022-07-29T17:08:31.774Z,3.30
2022-07-29T17:10:58.324Z,3.67
2022-07-29T17:13:24.880Z,3.70
2022-07-29T17:16:13.584Z,3.63
2022-07-29T17:18:41.501Z,4.00
2022-07-29T17:21:08.055Z,3.95
2022-07-29T17:23:34.604Z,3.92
2022-07-29T17:26:01.146Z,3.63
2022-07-29T17:28:27.695Z,4.20
2022-07-29T17:30:54.266Z,4.60
2022-07-29T17:33:22.866Z,3.88
2022-07-29T17:35:50.769Z,4.35
2022-07-29T17:38:17.290Z,4.75
2022-07-29T17:40:43.919Z,4.67
2022-07-29T17:43:10.491Z,5.47
2022-07-29T17:45:49.469Z,5.63
